Time;durP1;ratioP1;P1;durP2;ratioP2;P2;SDS_P1;SDS_P2;PMS_P1;PMS_P2;Temp;Humidity;BMP_temperature;BMP_pressure;BME280_temperature;BME280_humidity;BME280_pressure;Samples;Min_cycle;Max_cycle;Signal;HPM_P1;HPM_P2
2021/08/09 00:01:13;;;;;;;0.40;0.00;;;;;;;20.80;66.14;100381.19;126503;1090;102945;-74
2021/08/09 00:03:41;;;;;;;0.40;0.10;;;;;;;20.85;66.64;100393.42;126465;1090;114097;-74
2021/08/09 00:06:08;;;;;;;0.40;0.10;;;;;;;20.90;66.31;100392.23;126610;1090;104566;-73
2021/08/09 00:08:35;;;;;;;0.40;0.10;;;;;;;20.84;66.39;100388.97;126502;1089;114566;-73
2021/08/09 00:11:03;;;;;;;0.40;0.00;;;;;;;20.81;66.21;100383.78;126597;1089;102875;-74
2021/08/09 00:13:30;;;;;;;0.40;0.10;;;;;;;20.75;66.38;100395.02;126546;1090;102938;-74
2021/08/09 00:15:58;;;;;;;0.40;0.00;;;;;;;20.82;66.34;100390.05;126487;1090;114175;-74
2021/08/09 00:18:26;;;;;;;0.40;0.10;;;;;;;20.85;66.65;100400.69;126515;1088;102981;-74
2021/08/09 00:20:53;;;;;;;0.40;0.00;;;;;;;20.76;66.62;100409.44;126442;1090;114728;-74
2021/08/09 00:23:21;;;;;;;0.40;0.00;;;;;;;20.75;67.00;100403.14;126606;1093;102983;-74
2021/08/09 00:25:48;;;;;;;0.40;0.10;;;;;;;20.73;66.80;100418.64;126528;1089;103052;-73
2021/08/09 00:28:15;;;;;;;0.40;0.00;;;;;;;20.65;66.86;100423.68;126476;1090;114204;-73
2021/08/09 00:30:42;;;;;;;0.40;0.10;;;;;;;20.61;66.94;100433.84;126497;1090;102903;-74
2021/08/09 00:33:09;;;;;;;0.40;0.00;;;;;;;20.59;66.95;100437.62;126489;1090;114150;-74
2021/08/09 00:35:36;;;;;;;0.40;0.10;;;;;;;20.57;66.96;100429.61;126508;1090;103149;-74
2021/08/09 00:38:04;;;;;;;0.40;0.00;;;;;;;20.56;67.29;100435.98;126521;1090;102983;-74
2021/08/09 00:40:31;;;;;;;0.40;0.00;;;;;;;20.54;67.04;100436.09;126405;1090;114174;-73
2021/08/09 00:42:58;;;;;;;0.40;0.10;;;;;;;20.42;67.23;100439.64;126546;1090;103135;-73
2021/08/09 00:45:27;;;;;;;0.40;0.00;;;;;;;20.27;67.67;100441.50;126476;1090;114201;-72
2021/08/09 00:47:55;;;;;;;0.40;0.10;;;;;;;20.15;67.92;100435.09;126542;1090;102895;-73
2021/08/09 00:50:22;;;;;;;0.40;0.00;;;;;;;20.07;68.30;100429.30;126488;1089;102893;-73
2021/08/09 00:52:50;;;;;;;0.40;0.00;;;;;;;20.01;68.52;100430.58;126405;1090;113948;-73
2021/08/09 00:55:18;;;;;;;0.40;0.10;;;;;;;19.94;69.04;100426.55;126517;1090;104155;-73
2021/08/09 00:57:45;;;;;;;0.40;0.10;;;;;;;19.91;69.28;100420.47;126412;1090;114356;-73
2021/08/09 01:00:13;;;;;;;0.40;0.10;;;;;;;19.95;68.81;100419.30;126488;1090;103764;-74
2021/08/09 01:02:40;;;;;;;0.40;0.10;;;;;;;19.96;68.84;100412.93;126371;1089;114452;-73
2021/08/09 01:05:09;;;;;;;0.40;0.10;;;;;;;20.00;68.86;100409.05;126523;1090;102996;-73
2021/08/09 01:07:58;;;;;;;0.40;0.10;;;;;;;20.16;68.69;100414.31;126553;1089;102898;-74
2021/08/09 01:10:30;;;;;;;0.40;0.10;;;;;;;20.17;68.47;100407.95;126453;1090;114361;-73
2021/08/09 01:13:19;;;;;;;0.40;0.10;;;;;;;20.13;68.38;100415.39;126583;1090;103129;-73
2021/08/09 01:15:49;;;;;;;0.40;0.10;;;;;;;20.14;68.46;100410.83;126459;1090;114126;-73
2021/08/09 01:18:18;;;;;;;0.40;0.10;;;;;;;20.24;68.28;100408.41;126629;1090;103116;-73
2021/08/09 01:20:52;;;;;;;0.40;0.10;;;;;;;20.20;68.59;100405.88;126406;1090;114428;-73
2021/08/09 01:23:56;;;;;;;0.40;0.10;;;;;;;20.15;68.35;100399.05;126531;1092;102929;-73
2021/08/09 01:26:25;;;;;;;0.40;0.10;;;;;;;20.21;68.61;100404.06;126583;1090;102904;-73
2021/08/09 01:28:57;;;;;;;0.40;0.10;;;;;;;20.23;68.04;100391.30;126515;1090;114041;-73
2021/08/09 01:31:26;;;;;;;0.40;0.10;;;;;;;20.30;68.15;100387.23;126614;1089;102908;-74
2021/08/09 01:33:53;;;;;;;0.40;0.10;;;;;;;20.44;68.40;100394.39;126442;1090;114082;-73
2021/08/09 01:36:20;;;;;;;0.40;0.10;;;;;;;20.42;68.03;100390.94;126550;1092;102900;-73
2021/08/09 01:38:49;;;;;;;0.40;0.10;;;;;;;20.47;68.23;100393.31;126426;1090;114310;-73
2021/08/09 01:41:16;;;;;;;0.40;0.10;;;;;;;20.53;67.70;100403.73;126472;1093;103042;-73
2021/08/09 01:43:44;;;;;;;0.40;0.10;;;;;;;20.59;67.29;100424.09;126572;1090;102987;-73
2021/08/09 01:46:12;;;;;;;0.40;0.00;;;;;;;20.68;67.35;100410.78;126489;1090;114382;-73
2021/08/09 01:48:40;;;;;;;0.40;0.10;;;;;;;20.80;67.23;100411.81;126530;1092;102920;-74
2021/08/09 01:51:08;;;;;;;0.40;0.10;;;;;;;20.85;67.77;100417.78;126465;1090;114332;-74
2021/08/09 01:53:35;;;;;;;0.40;0.10;;;;;;;20.92;67.51;100414.66;126512;1090;102879;-74
2021/08/09 01:56:02;;;;;;;0.40;0.10;;;;;;;20.94;67.39;100412.70;126633;1092;102882;-74
2021/08/09 01:58:30;;;;;;;0.40;0.10;;;;;;;20.96;67.77;100413.47;126452;1088;114271;-75
2021/08/09 02:00:58;;;;;;;0.40;0.10;;;;;;;20.96;67.19;100416.17;126606;1090;103028;-75
2021/08/09 02:03:25;;;;;;;0.40;0.10;;;;;;;20.94;68.00;100412.70;126435;1090;114190;-76
2021/08/09 02:05:52;;;;;;;0.40;0.10;;;;;;;20.86;67.84;100405.98;126519;1089;102879;-75
2021/08/09 02:08:19;;;;;;;0.40;0.10;;;;;;;20.96;67.25;100405.34;126570;1090;103033;-75
2021/08/09 02:10:48;;;;;;;0.40;0.00;;;;;;;20.95;68.17;100414.44;126383;1089;113926;-74
2021/08/09 02:13:25;;;;;;;0.40;0.00;;;;;;;20.70;68.24;100400.77;126614;1090;102901;-74
2021/08/09 02:16:12;;;;;;;0.40;0.10;;;;;;;20.53;68.29;100401.03;126459;1090;114092;-74
2021/08/09 02:19:01;;;;;;;0.40;0.00;;;;;;;20.67;68.72;100403.66;126474;1090;102983;-74
2021/08/09 02:21:33;;;;;;;0.40;0.10;;;;;;;20.77;68.77;100412.03;126435;1090;114214;-74
2021/08/09 02:24:07;;;;;;;0.40;0.00;;;;;;;20.85;68.17;100412.37;126546;1090;103034;-74
2021/08/09 02:26:37;;;;;;;0.40;0.00;;;;;;;20.73;68.03;100410.52;126506;1090;115649;-73
2021/08/09 02:29:27;;;;;;;0.40;0.00;;;;;;;20.68;68.28;100409.93;24228;1094;20094540;-74
2021/08/09 02:31:55;;;;;;;0.40;0.00;;;;;;;20.86;67.95;100424.94;126541;1090;103033;-73
2021/08/09 02:34:26;;;;;;;0.40;0.00;;;;;;;21.03;67.82;100431.01;126400;1090;114361;-74
2021/08/09 02:36:53;;;;;;;0.40;0.10;;;;;;;20.97;68.06;100424.19;126563;1090;103041;-74
2021/08/09 02:39:21;;;;;;;0.40;0.03;;;;;;;20.66;68.35;100430.80;126381;1090;114223;-74
2021/08/09 02:41:48;;;;;;;0.40;0.00;;;;;;;20.59;69.00;100440.32;126604;1090;103036;-74
2021/08/09 02:44:15;;;;;;;0.40;0.00;;;;;;;20.72;68.56;100433.13;126543;1089;103017;-74
2021/08/09 02:46:43;;;;;;;0.40;0.00;;;;;;;20.86;68.49;100438.47;126470;1090;114286;-74
2021/08/09 02:49:11;;;;;;;0.40;0.00;;;;;;;20.96;67.70;100448.66;126574;1090;102989;-74
2021/08/09 02:51:38;;;;;;;0.40;0.00;;;;;;;20.96;67.44;100463.06;126450;1090;114138;-74
2021/08/09 02:54:06;;;;;;;0.40;0.10;;;;;;;20.96;67.83;100478.45;126616;1090;103029;-71
2021/08/09 02:56:33;;;;;;;0.40;0.00;;;;;;;20.98;67.66;100474.66;126339;1090;114308;-74
2021/08/09 02:59:01;;;;;;;0.40;0.10;;;;;;;20.85;68.76;100479.19;126527;1092;103035;-74
2021/08/09 03:01:31;;;;;;;0.40;0.10;;;;;;;20.66;68.12;100476.80;126576;1088;102878;-74
2021/08/09 03:03:59;;;;;;;0.40;0.10;;;;;;;20.61;68.72;100493.37;126484;1090;114133;-74
2021/08/09 03:06:27;;;;;;;0.40;0.10;;;;;;;20.48;68.59;100497.87;126516;1090;102922;-74
2021/08/09 03:08:55;;;;;;;0.40;0.10;;;;;;;20.40;68.71;100506.48;126397;1090;114270;-73
2021/08/09 03:11:22;;;;;;;0.40;0.07;;;;;;;20.40;68.94;100500.22;126623;1088;102914;-74
2021/08/09 03:13:50;;;;;;;0.40;0.00;;;;;;;20.46;69.24;100495.27;126524;1089;103033;-74
2021/08/09 03:16:18;;;;;;;0.40;0.00;;;;;;;20.45;69.04;100503.49;126410;1089;114132;-74
2021/08/09 03:18:45;;;;;;;0.40;0.10;;;;;;;20.34;68.94;100496.95;126631;1090;102914;-74
2021/08/09 03:21:12;;;;;;;0.40;0.00;;;;;;;20.25;69.27;100504.80;126463;1089;114271;-74
2021/08/09 03:23:39;;;;;;;0.40;0.10;;;;;;;20.19;69.09;100512.34;126535;1090;103345;-74
2021/08/09 03:26:07;;;;;;;0.40;0.10;;;;;;;20.15;69.85;100524.33;126538;1089;103009;-72
2021/08/09 03:28:35;;;;;;;0.40;0.10;;;;;;;20.11;69.42;100528.17;126430;1090;114170;-74
2021/08/09 03:31:04;;;;;;;0.40;0.00;;;;;;;20.23;69.46;100537.33;126602;1090;103023;-74
2021/08/09 03:33:31;;;;;;;0.40;0.10;;;;;;;20.29;69.24;100534.23;126431;1090;114102;-74
2021/08/09 03:35:59;;;;;;;0.40;0.10;;;;;;;20.45;68.75;100549.48;126531;1090;103326;-74
2021/08/09 03:38:26;;;;;;;0.40;0.10;;;;;;;20.51;68.40;100544.53;126460;1090;103051;-74
2021/08/09 03:40:53;;;;;;;0.40;0.03;;;;;;;20.62;68.22;100540.23;126486;1089;113954;-73
2021/08/09 03:43:20;;;;;;;0.40;0.10;;;;;;;20.67;68.31;100538.98;126543;1090;102946;-72
2021/08/09 03:45:47;;;;;;;0.40;0.10;;;;;;;20.74;67.80;100542.17;126456;1089;114091;-73
2021/08/09 03:48:15;;;;;;;0.40;0.10;;;;;;;20.80;67.84;100543.59;126580;1090;103031;-74
2021/08/09 03:50:42;;;;;;;0.40;0.10;;;;;;;20.86;67.50;100543.19;126485;1090;114284;-74
2021/08/09 03:53:09;;;;;;;0.40;0.10;;;;;;;20.76;67.32;100542.06;126574;1090;102904;-74
2021/08/09 03:55:36;;;;;;;0.40;0.10;;;;;;;20.65;66.97;100548.16;126570;1089;103054;-74
2021/08/09 03:58:03;;;;;;;0.40;0.10;;;;;;;20.71;67.56;100534.23;126518;1089;114081;-74
2021/08/09 04:00:31;;;;;;;0.40;0.10;;;;;;;20.74;66.97;100531.34;126583;1090;102983;-74
2021/08/09 04:02:58;;;;;;;0.40;0.10;;;;;;;20.74;66.94;100525.94;126458;1090;114286;-74
2021/08/09 04:05:26;;;;;;;0.40;0.10;;;;;;;20.79;67.07;100529.20;126524;1090;102897;-74
2021/08/09 04:07:53;;;;;;;0.40;0.10;;;;;;;20.79;66.95;100536.44;126506;1090;103106;-74
2021/08/09 04:10:20;;;;;;;0.40;0.10;;;;;;;20.83;66.94;100541.56;126452;1089;114066;-74
2021/08/09 04:12:48;;;;;;;0.40;0.03;;;;;;;20.83;66.66;100538.85;126563;1090;103020;-74
2021/08/09 04:15:15;;;;;;;0.40;0.00;;;;;;;20.92;67.10;100550.03;126431;1089;114306;-72
2021/08/09 04:17:44;;;;;;;0.40;0.00;;;;;;;20.96;66.72;100541.58;126540;1090;102916;-74
2021/08/09 04:20:11;;;;;;;0.40;0.10;;;;;;;20.96;66.37;100546.14;126560;1090;103004;-72
2021/08/09 04:22:38;;;;;;;0.40;0.10;;;;;;;20.95;66.99;100547.10;126500;1090;113427;-74
2021/08/09 04:25:06;;;;;;;0.40;0.10;;;;;;;20.92;66.73;100539.20;126596;1090;102916;-72
2021/08/09 04:27:33;;;;;;;0.40;0.10;;;;;;;20.94;67.21;100548.95;126371;1090;114280;-74
2021/08/09 04:30:00;;;;;;;0.40;0.10;;;;;;;20.99;67.17;100560.34;126570;1088;103121;-75
2021/08/09 04:32:39;;;;;;;0.40;0.10;;;;;;;20.90;67.55;100560.08;126488;1088;103694;-74
2021/08/09 04:35:08;;;;;;;0.40;0.10;;;;;;;20.80;67.24;100560.69;126463;1090;113929;-74
2021/08/09 04:37:36;;;;;;;0.40;0.10;;;;;;;20.85;67.04;100561.25;126522;1090;102911;-74
2021/08/09 04:40:04;;;;;;;0.40;0.00;;;;;;;20.90;67.46;100555.55;126464;1089;114156;-72
2021/08/09 04:42:32;;;;;;;0.40;0.10;;;;;;;20.95;66.53;100552.52;126583;1088;102920;-74
2021/08/09 04:44:59;;;;;;;0.40;0.00;;;;;;;20.98;66.73;100550.48;126388;1090;114268;-74
2021/08/09 04:47:27;;;;;;;0.40;0.10;;;;;;;20.95;66.62;100553.41;126545;1090;103143;-74
2021/08/09 04:49:54;;;;;;;0.40;0.10;;;;;;;21.05;66.70;100553.64;126510;1090;103007;-74
2021/08/09 04:52:21;;;;;;;0.40;0.10;;;;;;;21.17;65.91;100554.64;126400;1093;114098;-74
2021/08/09 04:54:49;;;;;;;0.40;0.00;;;;;;;21.25;65.91;100549.56;126529;1090;102914;-74
2021/08/09 04:57:16;;;;;;;0.40;0.10;;;;;;;21.30;65.40;100560.95;126304;1090;114481;-74
2021/08/09 04:59:43;;;;;;;0.40;0.10;;;;;;;21.26;65.77;100551.30;126470;1090;103448;-72
2021/08/09 05:02:10;;;;;;;0.40;0.10;;;;;;;21.13;64.68;100550.41;126535;1089;103463;-71
2021/08/09 05:04:38;;;;;;;0.40;0.10;;;;;;;21.10;65.61;100547.89;126398;1090;114085;-71
2021/08/09 05:07:05;;;;;;;0.40;0.00;;;;;;;21.17;64.96;100555.50;126547;1089;103248;-72
2021/08/09 05:09:33;;;;;;;0.40;0.10;;;;;;;21.24;65.40;100552.38;126447;1089;114198;-72
2021/08/09 05:12:01;;;;;;;0.40;0.10;;;;;;;21.26;65.38;100561.25;126586;1088;102954;-71
2021/08/09 05:14:28;;;;;;;0.40;0.10;;;;;;;21.33;65.45;100565.30;126519;1088;104634;-72
2021/08/09 05:16:55;;;;;;;0.40;0.10;;;;;;;21.26;63.91;100572.09;126482;1090;114094;-72
2021/08/09 05:19:23;;;;;;;0.40;0.00;;;;;;;21.16;64.90;100563.73;126564;1090;102885;-73
2021/08/09 05:21:50;;;;;;;0.40;0.10;;;;;;;21.10;64.48;100566.85;126497;1089;114279;-73
2021/08/09 05:24:17;;;;;;;0.40;0.10;;;;;;;21.05;64.32;100569.89;126574;1090;103116;-73
2021/08/09 05:26:44;;;;;;;0.40;0.10;;;;;;;21.09;64.76;100573.27;126412;1089;114271;-72
2021/08/09 05:29:11;;;;;;;0.40;0.00;;;;;;;21.14;64.37;100585.52;126480;1090;102884;-72
2021/08/09 05:31:39;;;;;;;0.40;0.00;;;;;;;21.12;64.89;100576.61;126427;1090;103024;-70
2021/08/09 05:34:07;;;;;;;0.40;0.10;;;;;;;21.26;64.69;100577.50;126351;1090;114130;-71
2021/08/09 05:36:38;;;;;;;0.40;0.00;;;;;;;21.25;64.39;100578.50;126599;1090;102938;-72
2021/08/09 05:39:05;;;;;;;0.40;0.10;;;;;;;21.32;64.29;100579.80;126374;1090;114279;-72
2021/08/09 05:41:33;;;;;;;0.40;0.10;;;;;;;21.33;64.15;100586.97;126493;1090;102911;-71
2021/08/09 05:44:00;;;;;;;0.40;0.00;;;;;;;21.20;64.62;100584.22;126562;1090;102963;-71
2021/08/09 05:46:28;;;;;;;0.40;0.10;;;;;;;21.10;64.15;100575.86;126342;1090;114087;-71
2021/08/09 05:48:59;;;;;;;0.40;0.00;;;;;;;21.09;64.67;100579.53;126631;1090;103077;-71
2021/08/09 05:51:26;;;;;;;0.40;0.00;;;;;;;21.05;64.31;100581.58;126361;1089;114336;-65
2021/08/09 05:53:53;;;;;;;0.40;0.00;;;;;;;21.00;64.33;100580.16;126559;1093;102981;-69
2021/08/09 05:56:20;;;;;;;0.40;0.00;;;;;;;21.05;64.75;100586.13;126449;1090;102989;-69
2021/08/09 05:58:47;;;;;;;0.40;0.10;;;;;;;21.12;64.21;100581.17;126257;1090;113448;-71
2021/08/09 06:01:14;;;;;;;0.40;0.10;;;;;;;21.14;64.01;100585.52;126475;1089;103455;-69
2021/08/09 06:03:42;;;;;;;0.40;0.00;;;;;;;21.15;64.21;100592.67;126327;1090;114137;-67
2021/08/09 06:06:17;;;;;;;0.40;0.00;;;;;;;21.16;64.47;100583.55;126439;1092;102877;-68
2021/08/09 06:08:47;;;;;;;0.40;0.10;;;;;;;21.23;63.57;100589.41;126924;1090;114356;-70
2021/08/09 06:11:14;;;;;;;0.40;0.05;;;;;;;21.32;64.16;100585.22;126617;1089;102924;-70
2021/08/09 06:13:42;;;;;;;0.40;0.10;;;;;;;21.35;63.25;100590.42;126630;1089;102900;-71
2021/08/09 06:16:09;;;;;;;0.40;0.00;;;;;;;21.42;64.08;100593.58;126498;1090;114249;-70
2021/08/09 06:18:37;;;;;;;0.40;0.10;;;;;;;21.45;63.77;100596.09;126678;1090;103329;-70
2021/08/09 06:21:04;;;;;;;0.40;0.10;;;;;;;21.49;63.14;100595.77;126508;1088;114429;-70
2021/08/09 06:23:32;;;;;;;0.40;0.05;;;;;;;21.52;62.87;100595.54;126703;1088;103038;-70
2021/08/09 06:25:59;;;;;;;0.40;0.10;;;;;;;21.53;62.66;100599.14;126693;1089;102898;-69
2021/08/09 06:28:27;;;;;;;0.40;0.10;;;;;;;21.45;62.75;100598.81;126472;1089;114175;-69
2021/08/09 06:30:54;;;;;;;0.40;0.10;;;;;;;21.47;62.75;100595.02;126674;1089;103016;-69
2021/08/09 06:33:21;;;;;;;0.40;0.10;;;;;;;21.49;62.88;100598.47;126506;1089;113288;-70
2021/08/09 06:35:48;;;;;;;0.40;0.00;;;;;;;21.59;63.63;100601.44;126688;1090;103019;-69
2021/08/09 06:38:15;;;;;;;0.40;0.10;;;;;;;21.73;62.97;100588.79;126570;1091;102913;-68
2021/08/09 06:40:44;;;;;;;0.40;0.10;;;;;;;21.83;62.34;100589.86;126477;1088;114353;-69
2021/08/09 06:43:12;;;;;;;0.40;0.00;;;;;;;21.94;62.16;100594.52;126672;1088;102971;-68
2021/08/09 06:45:43;;;;;;;0.40;0.10;;;;;;;22.02;61.53;100593.00;126410;1088;114133;-69
2021/08/09 06:48:12;;;;;;;0.40;0.00;;;;;;;22.08;61.16;100596.26;126644;1088;102962;-69
2021/08/09 06:50:40;;;;;;;0.40;0.00;;;;;;;22.11;60.47;100604.16;126654;1089;103025;-69
2021/08/09 06:53:08;;;;;;;0.40;0.00;;;;;;;22.16;60.34;100604.70;126569;1088;113980;-68
2021/08/09 06:55:36;;;;;;;0.40;0.00;;;;;;;22.20;59.92;100608.93;126643;1089;103335;-68
2021/08/09 06:58:03;;;;;;;0.40;0.03;;;;;;;22.24;60.30;100602.30;126441;1089;114223;-68
2021/08/09 07:00:31;;;;;;;0.40;0.00;;;;;;;22.33;60.43;100611.64;126564;1089;102884;-67
2021/08/09 07:03:05;;;;;;;0.40;0.10;;;;;;;22.39;60.09;100616.63;126472;1089;114316;-68
2021/08/09 07:05:44;;;;;;;0.40;0.00;;;;;;;22.46;60.12;100615.22;126551;1090;103043;-68
2021/08/09 07:08:12;;;;;;;0.40;0.00;;;;;;;22.49;59.46;100609.56;126574;1089;103064;-69
2021/08/09 07:10:42;;;;;;;0.40;0.00;;;;;;;22.51;58.71;100613.05;126558;1088;114175;-69
2021/08/09 07:13:09;;;;;;;0.40;0.00;;;;;;;22.53;59.14;100611.06;126708;1088;102955;-69
2021/08/09 07:15:36;;;;;;;0.40;0.00;;;;;;;22.50;58.38;100610.45;126416;1089;114238;-69
2021/08/09 07:18:03;;;;;;;0.40;0.00;;;;;;;22.59;59.08;100625.17;126477;1092;102903;-69
2021/08/09 07:20:31;;;;;;;0.40;0.10;;;;;;;22.68;58.79;100616.34;126510;1090;102892;-69
2021/08/09 07:22:58;;;;;;;0.40;0.00;;;;;;;22.73;59.14;100616.03;126435;1090;113127;-69
2021/08/09 07:25:25;;;;;;;0.40;0.00;;;;;;;22.78;59.17;100621.95;126495;1089;103028;-69
2021/08/09 07:27:53;;;;;;;0.40;0.00;;;;;;;22.81;58.21;100619.03;126380;1090;114271;-69
2021/08/09 07:30:20;;;;;;;0.40;0.00;;;;;;;22.85;58.57;100623.25;126601;1090;102980;-69
2021/08/09 07:32:47;;;;;;;0.40;0.10;;;;;;;22.87;58.83;100618.55;126502;1089;114460;-69
2021/08/09 07:35:14;;;;;;;0.40;0.00;;;;;;;22.95;57.77;100618.88;126411;1088;102882;-69
2021/08/09 07:37:42;;;;;;;0.40;0.00;;;;;;;23.00;57.68;100623.95;126560;1088;102888;-70
2021/08/09 07:40:10;;;;;;;0.40;0.00;;;;;;;23.03;57.30;100620.98;126457;1089;114159;-69
2021/08/09 07:42:37;;;;;;;0.40;0.10;;;;;;;23.11;57.52;100625.84;126607;1088;102929;-69
2021/08/09 07:45:05;;;;;;;0.40;0.00;;;;;;;23.16;57.76;100629.13;126497;1088;113276;-70
2021/08/09 07:47:32;;;;;;;0.40;0.00;;;;;;;23.19;57.21;100618.02;126532;1090;102977;-69
2021/08/09 07:50:00;;;;;;;0.40;0.00;;;;;;;23.19;56.48;100637.92;126589;1092;102983;-69
2021/08/09 07:52:27;;;;;;;0.40;0.00;;;;;;;23.18;57.11;100636.17;126464;1090;114215;-69
2021/08/09 07:54:55;;;;;;;0.40;0.00;;;;;;;23.21;57.70;100635.94;126643;1090;102980;-69
2021/08/09 07:57:22;;;;;;;0.40;0.00;;;;;;;23.28;56.80;100640.91;126500;1089;114567;-69
2021/08/09 07:59:53;;;;;;;0.40;0.00;;;;;;;23.32;56.86;100643.27;126572;1089;103100;-69
2021/08/09 08:02:20;;;;;;;0.40;0.00;;;;;;;23.43;56.37;100634.31;126640;1089;103000;-69
2021/08/09 08:04:47;;;;;;;0.40;0.00;;;;;;;23.48;57.13;100640.23;126356;1090;114159;-69
2021/08/09 08:07:15;;;;;;;0.40;0.10;;;;;;;23.54;55.80;100638.92;126539;1090;102923;-70
2021/08/09 08:09:42;;;;;;;0.40;0.00;;;;;;;23.58;55.85;100639.53;126486;1089;113064;-69
2021/08/09 08:12:09;;;;;;;0.40;0.00;;;;;;;23.65;56.00;100647.09;126626;1088;103001;-69
2021/08/09 08:14:36;;;;;;;0.40;0.00;;;;;;;23.70;55.62;100644.89;126613;1090;102907;-69
2021/08/09 08:17:03;;;;;;;0.40;0.00;;;;;;;23.76;55.33;100650.84;126487;1089;113983;-69
2021/08/09 08:19:31;;;;;;;0.40;0.10;;;;;;;23.80;55.87;100652.34;126595;1088;102991;-69
2021/08/09 08:21:58;;;;;;;0.40;0.00;;;;;;;23.86;55.79;100652.72;126480;1089;114165;-69
2021/08/09 08:24:27;;;;;;;0.40;0.00;;;;;;;23.92;54.82;100655.98;126611;1088;102951;-69
2021/08/09 08:26:55;;;;;;;0.40;0.00;;;;;;;23.95;54.18;100655.73;126394;1089;114375;-68
2021/08/09 08:29:22;;;;;;;0.40;0.00;;;;;;;24.02;54.12;100654.28;126530;1088;103003;-69
2021/08/09 08:31:49;;;;;;;0.40;0.00;;;;;;;24.10;54.25;100650.92;126595;1090;103029;-68
2021/08/09 08:34:17;;;;;;;0.40;0.00;;;;;;;24.17;53.54;100663.92;126408;1089;114341;-69
2021/08/09 08:36:44;;;;;;;0.40;0.00;;;;;;;24.19;52.82;100661.08;126573;1089;102887;-69
2021/08/09 08:39:11;;;;;;;0.40;0.00;;;;;;;24.16;52.26;100658.61;126487;1089;113645;-69
2021/08/09 08:41:43;;;;;;;0.40;0.00;;;;;;;24.26;52.22;100661.45;126607;1089;102938;-69
2021/08/09 08:44:10;;;;;;;0.40;0.00;;;;;;;24.36;51.62;100667.90;126632;1088;103035;-69
2021/08/09 08:46:41;;;;;;;0.40;0.00;;;;;;;24.46;52.32;100666.17;126410;1090;114383;-71
2021/08/09 08:49:14;;;;;;;0.40;0.00;;;;;;;24.58;51.85;100675.21;126477;1090;103021;-72
2021/08/09 08:51:42;;;;;;;0.40;0.00;;;;;;;24.63;50.36;100664.84;126369;1089;114345;-70
2021/08/09 08:54:12;;;;;;;0.40;0.00;;;;;;;24.70;50.36;100684.28;126459;1088;102906;-71
2021/08/09 08:56:41;;;;;;;0.40;0.00;;;;;;;24.82;50.69;100676.96;126330;1090;102966;-71
2021/08/09 08:59:13;;;;;;;0.40;0.00;;;;;;;24.95;49.61;100671.34;126431;1089;114025;-70
2021/08/09 09:01:42;;;;;;;0.40;0.00;;;;;;;25.08;49.58;100672.05;126646;1090;102975;-72
2021/08/09 09:04:31;;;;;;;0.40;0.00;;;;;;;25.22;50.07;100681.82;126411;1090;114096;-72
2021/08/09 09:07:00;;;;;;;0.40;0.00;;;;;;;25.23;48.43;100677.22;126468;1089;103055;-72
2021/08/09 09:09:39;;;;;;;0.40;0.00;;;;;;;25.33;49.68;100673.59;126483;1089;114484;-72
2021/08/09 09:12:17;;;;;;;0.40;0.00;;;;;;;25.43;48.70;100681.91;126502;1088;102878;-71
2021/08/09 09:14:59;;;;;;;0.40;0.00;;;;;;;25.63;48.90;100688.39;126519;1089;102985;-70
2021/08/09 09:17:34;;;;;;;0.40;0.00;;;;;;;25.87;48.42;100685.41;126412;1090;113956;-71
2021/08/09 09:20:24;;;;;;;0.40;0.00;;;;;;;26.10;47.18;100685.30;126523;1090;102984;-71
2021/08/09 09:22:53;;;;;;;0.40;0.00;;;;;;;26.61;43.95;100688.14;126474;1089;114095;-70
2021/08/09 09:25:33;;;;;;;0.40;0.00;;;;;;;27.56;41.88;100695.00;126440;1090;102894;-70
2021/08/09 09:28:28;;;;;;;0.40;0.00;;;;;;;28.88;41.13;100690.68;126336;1090;114119;-70
2021/08/09 09:31:02;;;;;;;0.40;0.00;;;;;;;30.29;37.37;100696.48;126548;1089;102969;-70
2021/08/09 09:33:30;;;;;;;0.40;0.00;;;;;;;31.29;34.71;100695.92;126364;1089;114430;-70
2021/08/09 09:36:03;;;;;;;0.40;0.00;;;;;;;32.18;32.80;100691.50;126475;1090;102919;-70
2021/08/09 09:38:41;;;;;;;0.40;0.00;;;;;;;33.04;31.84;100692.78;126489;1089;104134;-71
2021/08/09 09:41:09;;;;;;;0.40;0.00;;;;;;;33.98;31.72;100689.91;126321;1090;114097;-70
2021/08/09 09:43:44;;;;;;;0.40;0.00;;;;;;;34.79;29.56;100698.36;126404;1090;103033;-70
2021/08/09 09:46:30;;;;;;;0.40;0.00;;;;;;;35.44;28.62;100695.77;126370;1092;114125;-70
2021/08/09 09:49:06;;;;;;;0.40;0.00;;;;;;;36.03;27.92;100687.34;126493;1089;102954;-71
2021/08/09 09:51:45;;;;;;;0.40;0.00;;;;;;;36.60;26.76;100696.50;126431;1090;114248;-70
2021/08/09 09:54:13;;;;;;;0.40;0.00;;;;;;;36.93;27.49;100695.84;126588;1090;102930;-71
2021/08/09 09:56:40;;;;;;;0.40;0.00;;;;;;;37.50;26.12;100690.02;126503;1090;102920;-71
2021/08/09 09:59:08;;;;;;;0.40;0.00;;;;;;;38.02;25.24;100695.88;126477;1089;114084;-71
2021/08/09 10:01:36;;;;;;;0.40;0.00;;;;;;;38.20;24.13;100698.83;126509;1090;102945;-71
2021/08/09 10:04:03;;;;;;;0.40;0.00;;;;;;;38.37;23.41;100695.63;126486;1090;114111;-70
2021/08/09 10:06:32;;;;;;;0.40;0.00;;;;;;;38.60;23.16;100697.91;126549;1090;102972;-70
2021/08/09 10:08:59;;;;;;;0.40;0.00;;;;;;;39.14;23.27;100698.58;126517;1090;102887;-70
2021/08/09 10:11:26;;;;;;;0.40;0.00;;;;;;;39.04;21.21;100707.43;126492;1090;113997;-70
2021/08/09 10:13:54;;;;;;;0.40;0.00;;;;;;;39.43;21.06;100699.09;126549;1090;103402;-71
2021/08/09 10:16:21;;;;;;;0.40;0.00;;;;;;;39.61;21.57;100699.18;126479;1090;114044;-70
2021/08/09 10:18:51;;;;;;;0.40;0.00;;;;;;;39.74;20.63;100702.97;126585;1090;102956;-70
2021/08/09 10:21:19;;;;;;;0.40;0.00;;;;;;;40.02;21.33;100704.45;126307;1092;114245;-70
2021/08/09 10:23:49;;;;;;;0.40;0.00;;;;;;;40.37;20.27;100704.75;126575;1090;103161;-71
2021/08/09 10:26:31;;;;;;;0.40;0.00;;;;;;;40.51;20.20;100713.02;126502;1089;102996;-71
2021/08/09 10:29:09;;;;;;;0.40;0.00;;;;;;;40.57;19.88;100709.30;126366;1090;114133;-70
2021/08/09 10:31:48;;;;;;;0.40;0.00;;;;;;;40.61;19.97;100702.16;126468;1090;102908;-70
2021/08/09 10:34:40;;;;;;;0.40;0.00;;;;;;;40.51;19.87;100701.84;126459;1089;114100;-69
2021/08/09 10:37:14;;;;;;;0.40;0.00;;;;;;;40.64;20.48;100700.84;126584;1089;102911;-70
2021/08/09 10:40:03;;;;;;;0.40;0.00;;;;;;;40.91;20.16;100706.97;126366;1090;114323;-70
2021/08/09 10:42:42;;;;;;;0.40;0.00;;;;;;;40.56;19.77;100704.80;126601;1089;102877;-71
2021/08/09 10:45:14;;;;;;;0.40;0.00;;;;;;;40.74;19.39;100710.38;126513;1089;114304;-70
2021/08/09 10:47:51;;;;;;;0.40;0.00;;;;;;;40.63;19.37;100708.39;126574;1090;103028;-71
2021/08/09 10:50:24;;;;;;;0.40;0.00;;;;;;;40.45;19.77;100711.98;126525;1090;102982;-70
2021/08/09 10:52:53;;;;;;;0.40;0.00;;;;;;;40.66;19.64;100712.66;126437;1090;114132;-69
2021/08/09 10:55:32;;;;;;;0.40;0.00;;;;;;;40.48;19.14;100711.50;126516;1089;102932;-70
2021/08/09 10:58:04;;;;;;;0.40;0.00;;;;;;;40.30;20.46;100706.77;126483;1090;114060;-70
2021/08/09 11:00:40;;;;;;;0.40;0.00;;;;;;;39.91;19.90;100715.26;126579;1089;102873;-70
2021/08/09 11:03:12;;;;;;;0.40;0.00;;;;;;;38.32;21.00;100712.97;126463;1090;114311;-70
2021/08/09 11:05:39;;;;;;;0.40;0.00;;;;;;;36.98;22.76;100713.58;126642;1090;102872;-71
2021/08/09 11:08:16;;;;;;;0.40;0.00;;;;;;;36.12;23.64;100723.06;126539;1090;102908;-70
2021/08/09 11:10:55;;;;;;;0.40;0.00;;;;;;;35.09;25.16;100712.16;126490;1089;114203;-70
2021/08/09 11:13:23;;;;;;;0.40;0.00;;;;;;;34.19;25.23;100718.71;126562;1089;102911;-70
2021/08/09 11:15:54;;;;;;;0.40;0.00;;;;;;;33.32;27.00;100718.00;126535;1092;114106;-70
2021/08/09 11:18:22;;;;;;;0.40;0.00;;;;;;;32.67;28.07;100711.73;126611;1088;103402;-71
2021/08/09 11:21:06;;;;;;;0.40;0.00;;;;;;;32.15;28.62;100702.86;126509;1088;103122;-70